createdAt,value
2018-07-03T00:00:39.879Z,15.50
2018-07-03T00:03:37.727Z,15.50
2018-07-03T00:06:35.312Z,15.40
2018-07-03T00:09:32.958Z,15.40
2018-07-03T00:12:31.850Z,15.40
2018-07-03T00:15:29.660Z,15.50
2018-07-03T00:18:27.547Z,15.40
2018-07-03T00:21:25.404Z,15.40
2018-07-03T00:24:23.302Z,15.30
2018-07-03T00:27:22.081Z,15.40
2018-07-03T00:30:20.139Z,15.30
2018-07-03T00:33:17.811Z,15.30
2018-07-03T00:36:15.708Z,15.30
2018-07-03T00:39:12.847Z,15.30
2018-07-03T00:42:10.724Z,15.20
2018-07-03T00:45:07.916Z,15.10
2018-07-03T00:48:06.090Z,15.10
2018-07-03T00:51:03.925Z,15.10
2018-07-03T00:54:02.041Z,15.10
2018-07-03T00:56:59.305Z,15.00
2018-07-03T01:00:02.419Z,15.00
2018-07-03T01:03:01.184Z,15.10
2018-07-03T01:05:58.447Z,15.20
2018-07-03T01:08:55.686Z,15.10
2018-07-03T01:11:52.879Z,15.00
2018-07-03T01:14:50.890Z,15.00
2018-07-03T01:17:48.908Z,14.90
2018-07-03T01:20:46.789Z,14.90
2018-07-03T01:23:44.867Z,14.90
2018-07-03T01:26:42.735Z,14.80
2018-07-03T01:29:40.791Z,14.80
2018-07-03T01:32:38.737Z,14.80
2018-07-03T01:35:36.674Z,14.80
2018-07-03T01:38:34.657Z,14.70
2018-07-03T01:41:32.509Z,14.70
2018-07-03T01:44:30.447Z,14.70
2018-07-03T01:47:28.320Z,14.70
2018-07-03T01:50:26.008Z,14.70
2018-07-03T01:53:23.951Z,14.80
2018-07-03T01:56:21.787Z,14.80
2018-07-03T01:59:19.666Z,14.90
2018-07-03T02:02:17.633Z,14.90
2018-07-03T02:05:15.734Z,14.80
2018-07-03T02:08:13.762Z,14.80
2018-07-03T02:11:10.878Z,14.80
2018-07-03T02:14:08.916Z,14.90
2018-07-03T02:17:07.055Z,14.90
2018-07-03T02:20:05.114Z,14.80
2018-07-03T02:23:03.217Z,14.80
2018-07-03T02:26:00.543Z,14.90
2018-07-03T02:28:58.559Z,15.00
2018-07-03T02:31:56.527Z,15.00
2018-07-03T02:34:53.720Z,15.10
2018-07-03T02:37:51.639Z,15.10
2018-07-03T02:40:48.840Z,15.10
2018-07-03T02:43:46.722Z,15.00
2018-07-03T02:46:44.795Z,15.10
2018-07-03T02:49:42.943Z,15.10
2018-07-03T02:52:40.371Z,15.10
2018-07-03T02:55:38.443Z,15.10
2018-07-03T02:58:35.562Z,15.00
2018-07-03T03:01:33.301Z,14.90
2018-07-03T03:04:30.862Z,15.00
2018-07-03T03:07:28.782Z,15.00
2018-07-03T03:10:26.723Z,15.00
2018-07-03T03:13:24.481Z,15.00
2018-07-03T03:16:22.292Z,15.00
2018-07-03T03:19:21.275Z,15.10
2018-07-03T03:22:19.041Z,15.10
2018-07-03T03:25:16.921Z,15.20
2018-07-03T03:28:14.682Z,15.20
2018-07-03T03:34:02.685Z,15.10
2018-07-03T03:37:00.754Z,15.00
2018-07-03T03:39:58.757Z,15.00
2018-07-03T03:42:56.669Z,14.90
2018-07-03T03:45:54.655Z,14.90
2018-07-03T03:48:52.462Z,14.90
2018-07-03T03:51:50.292Z,15.00
2018-07-03T03:54:48.072Z,15.10
2018-07-03T03:57:45.986Z,15.10
2018-07-03T04:00:43.825Z,15.30
2018-07-03T04:03:41.504Z,15.30
2018-07-03T04:06:39.308Z,15.30
2018-07-03T04:09:37.154Z,15.40
2018-07-03T04:12:34.882Z,15.40
2018-07-03T04:15:32.933Z,15.40
2018-07-03T04:18:35.738Z,15.50
2018-07-03T04:21:33.663Z,15.60
2018-07-03T04:24:31.515Z,15.80
2018-07-03T04:27:29.592Z,15.90
2018-07-03T04:30:27.425Z,15.90
2018-07-03T04:33:25.193Z,15.80
2018-07-03T04:36:23.023Z,15.80
2018-07-03T04:39:22.030Z,15.80
2018-07-03T04:42:20.140Z,16.00
2018-07-03T04:45:18.188Z,15.90
2018-07-03T04:48:15.562Z,16.00
2018-07-03T04:51:13.263Z,16.30
2018-07-03T04:54:10.931Z,16.40
2018-07-03T04:57:09.023Z,16.40
2018-07-03T05:00:06.351Z,16.60
2018-07-03T05:03:04.729Z,16.80
2018-07-03T05:06:02.929Z,16.90
2018-07-03T05:09:00.494Z,17.00
2018-07-03T05:11:57.792Z,17.10
2018-07-03T05:14:55.759Z,17.30
2018-07-03T05:17:53.938Z,17.50
2018-07-03T05:20:51.093Z,17.70
2018-07-03T05:23:48.257Z,17.70
2018-07-03T05:26:45.683Z,17.80
2018-07-03T05:32:33.465Z,17.70
2018-07-03T05:35:31.381Z,17.80
2018-07-03T05:38:29.394Z,17.60
2018-07-03T05:41:28.167Z,17.60
2018-07-03T05:44:25.871Z,17.40
2018-07-03T05:47:23.781Z,17.50
2018-07-03T05:50:21.545Z,17.70
2018-07-03T05:53:19.478Z,17.70
2018-07-03T05:56:17.379Z,17.40
2018-07-03T05:59:15.152Z,17.60
2018-07-03T06:02:12.917Z,17.40
2018-07-03T06:05:10.710Z,17.60
2018-07-03T06:08:08.606Z,17.70
2018-07-03T06:11:06.450Z,17.80
2018-07-03T06:14:05.397Z,17.80
2018-07-03T06:17:04.170Z,17.40
2018-07-03T06:20:02.000Z,17.50
2018-07-03T06:22:59.947Z,17.80
2018-07-03T06:25:57.726Z,17.80
2018-07-03T06:28:55.564Z,17.70
2018-07-03T06:31:53.395Z,17.80
2018-07-03T06:34:51.375Z,18.00
2018-07-03T06:37:49.092Z,17.90
2018-07-03T06:40:47.061Z,17.80
2018-07-03T06:43:45.314Z,17.60
2018-07-03T06:46:43.023Z,17.60
2018-07-03T06:52:30.839Z,17.80
2018-07-03T06:55:28.650Z,18.10
2018-07-03T06:58:26.539Z,18.10
2018-07-03T07:01:25.440Z,18.30
2018-07-03T07:04:23.460Z,18.50
2018-07-03T07:07:21.167Z,18.30
2018-07-03T07:10:19.908Z,18.20
2018-07-03T07:13:17.642Z,18.10
2018-07-03T07:16:15.372Z,18.10
2018-07-03T07:19:13.210Z,18.20
2018-07-03T07:22:10.922Z,18.10
2018-07-03T07:25:08.610Z,18.20
2018-07-03T07:28:06.994Z,18.20
2018-07-03T07:31:05.150Z,18.00
2018-07-03T07:34:03.325Z,18.10
2018-07-03T07:37:09.767Z,18.20
2018-07-03T07:40:07.689Z,18.40
2018-07-03T07:43:05.646Z,18.40
2018-07-03T07:46:03.674Z,18.40
2018-07-03T07:49:01.696Z,18.30
2018-07-03T07:51:59.653Z,18.30
2018-07-03T07:54:57.613Z,18.40
2018-07-03T07:57:55.548Z,18.30
2018-07-03T08:03:43.181Z,18.10
2018-07-03T08:06:41.126Z,18.40
2018-07-03T08:09:38.787Z,18.40
2018-07-03T08:12:36.566Z,18.40
2018-07-03T08:15:34.450Z,18.40
2018-07-03T08:18:32.449Z,18.30
2018-07-03T08:21:31.428Z,18.20
2018-07-03T08:24:29.454Z,18.20
2018-07-03T08:27:28.403Z,18.20
2018-07-03T08:30:26.089Z,18.40
2018-07-03T08:33:25.776Z,18.50
2018-07-03T08:36:23.767Z,18.60
2018-07-03T08:39:22.081Z,18.50
2018-07-03T08:42:19.991Z,18.50
2018-07-03T08:45:17.635Z,18.50
2018-07-03T08:48:15.059Z,18.70
2018-07-03T08:51:13.107Z,18.50
2018-07-03T08:54:11.102Z,18.50
2018-07-03T08:57:09.030Z,18.70
2018-07-03T09:00:06.891Z,18.80
2018-07-03T09:03:04.549Z,19.10
2018-07-03T09:06:02.552Z,19.40
2018-07-03T09:09:00.652Z,19.50
2018-07-03T09:11:58.535Z,19.70
2018-07-03T09:14:56.205Z,19.70
2018-07-03T09:17:54.048Z,19.30
2018-07-03T09:20:51.884Z,19.40
2018-07-03T09:23:49.606Z,19.20
2018-07-03T09:26:47.394Z,19.00
2018-07-03T09:29:45.458Z,19.30
2018-07-03T09:32:43.513Z,19.30
2018-07-03T09:35:41.564Z,19.10
2018-07-03T09:38:39.542Z,19.20
2018-07-03T09:41:37.779Z,19.00
2018-07-03T09:44:35.896Z,19.20
2018-07-03T09:47:33.460Z,19.30
2018-07-03T09:50:31.242Z,18.90
2018-07-03T09:53:29.236Z,19.10
2018-07-03T09:56:26.538Z,19.00
2018-07-03T09:59:23.863Z,18.90
2018-07-03T10:02:21.690Z,19.00
2018-07-03T10:05:19.822Z,19.10
2018-07-03T10:08:17.678Z,18.90
2018-07-03T10:11:15.708Z,18.90
2018-07-03T10:14:13.454Z,19.00
2018-07-03T10:17:11.492Z,19.00
2018-07-03T10:22:59.215Z,19.00
2018-07-03T10:25:57.196Z,19.00
2018-07-03T10:28:54.927Z,19.10
2018-07-03T10:31:54.343Z,19.40
2018-07-03T10:34:51.541Z,19.30
2018-07-03T10:37:49.666Z,19.30
2018-07-03T10:40:47.601Z,19.20
2018-07-03T10:43:46.482Z,19.30
2018-07-03T10:46:44.475Z,19.30
2018-07-03T10:49:42.446Z,19.50
2018-07-03T10:52:40.994Z,19.50
2018-07-03T10:55:39.024Z,19.70
2018-07-03T10:58:37.070Z,19.40
2018-07-03T11:01:35.019Z,19.10
2018-07-03T11:04:34.099Z,19.20
2018-07-03T11:07:32.065Z,19.50
2018-07-03T11:10:30.196Z,19.60
2018-07-03T11:13:27.582Z,19.50
2018-07-03T11:16:24.922Z,19.70
2018-07-03T11:19:22.171Z,19.60
2018-07-03T11:22:19.430Z,19.50
2018-07-03T11:25:17.990Z,19.70
2018-07-03T11:28:15.228Z,19.70
2018-07-03T11:31:12.569Z,19.80
2018-07-03T11:34:10.770Z,19.90
2018-07-03T11:37:07.856Z,20.10
2018-07-03T11:40:05.236Z,20.20
2018-07-03T11:43:02.506Z,20.10
2018-07-03T11:46:00.531Z,20.00
2018-07-03T11:48:57.982Z,20.30
2018-07-03T11:51:55.997Z,20.40
2018-07-03T11:54:55.662Z,20.50
2018-07-03T11:57:53.790Z,20.20
2018-07-03T12:00:51.103Z,20.20
2018-07-03T12:03:49.978Z,20.00
2018-07-03T12:06:48.799Z,20.10
2018-07-03T12:09:46.854Z,19.90
2018-07-03T12:12:44.934Z,20.00
2018-07-03T12:15:42.903Z,20.10
2018-07-03T12:18:46.791Z,20.10
2018-07-03T12:24:35.497Z,20.10
2018-07-03T12:27:34.473Z,19.90
2018-07-03T12:30:33.034Z,19.90
2018-07-03T12:33:30.855Z,19.90
2018-07-03T12:36:30.827Z,19.90
2018-07-03T12:39:30.675Z,19.90
2018-07-03T12:42:29.506Z,19.80
2018-07-03T12:45:27.351Z,19.80
2018-07-03T12:48:25.440Z,19.90
2018-07-03T12:51:23.410Z,20.10
2018-07-03T12:54:21.191Z,20.20
2018-07-03T12:57:19.107Z,20.40
2018-07-03T13:00:16.975Z,20.30
2018-07-03T13:03:14.684Z,20.70
2018-07-03T13:06:12.664Z,20.80
2018-07-03T13:09:11.648Z,20.90
2018-07-03T13:12:09.637Z,21.10
2018-07-03T13:15:07.481Z,20.90
2018-07-03T13:18:05.212Z,20.90
2018-07-03T13:21:02.512Z,20.90
2018-07-03T13:24:00.256Z,20.90
2018-07-03T13:26:58.300Z,20.90
2018-07-03T13:29:56.395Z,21.10
2018-07-03T13:32:54.290Z,21.50
2018-07-03T13:35:52.474Z,21.50
2018-07-03T13:38:49.826Z,21.60
2018-07-03T13:41:47.449Z,21.80
2018-07-03T13:44:45.552Z,21.80
2018-07-03T13:47:43.386Z,21.90
2018-07-03T13:50:41.339Z,21.80
2018-07-03T13:53:39.434Z,21.40
2018-07-03T13:56:37.360Z,21.30
2018-07-03T13:59:35.331Z,21.20
2018-07-03T14:02:33.041Z,21.30
2018-07-03T14:05:30.764Z,21.40
2018-07-03T14:08:28.622Z,21.50
2018-07-03T14:11:26.460Z,21.60
2018-07-03T14:14:24.097Z,21.60
2018-07-03T14:17:21.749Z,21.50
2018-07-03T14:20:19.722Z,21.50
2018-07-03T14:23:17.823Z,21.50
2018-07-03T14:26:16.129Z,21.60
2018-07-03T14:29:14.157Z,21.70
2018-07-03T14:32:12.222Z,21.80
2018-07-03T14:35:09.411Z,22.00
2018-07-03T14:38:07.608Z,22.10
2018-07-03T14:41:05.498Z,22.00
2018-07-03T14:44:03.282Z,21.80
2018-07-03T14:47:01.082Z,21.60
2018-07-03T14:50:00.086Z,21.70
2018-07-03T14:52:58.118Z,21.80
2018-07-03T14:55:56.114Z,22.00
2018-07-03T14:58:54.138Z,21.70
2018-07-03T15:01:51.939Z,21.80
2018-07-03T15:04:50.964Z,21.90
2018-07-03T15:07:48.925Z,22.00
2018-07-03T15:13:36.380Z,22.00
2018-07-03T15:16:34.275Z,21.90
2018-07-03T15:19:38.174Z,22.00
2018-07-03T15:22:35.874Z,22.00
2018-07-03T15:25:33.771Z,22.00
2018-07-03T15:28:32.763Z,22.10
2018-07-03T15:31:30.694Z,22.00
2018-07-03T15:34:28.668Z,22.00
2018-07-03T15:37:26.550Z,22.00
2018-07-03T15:40:24.643Z,22.00
2018-07-03T15:43:22.355Z,21.90
2018-07-03T15:46:21.215Z,22.10
2018-07-03T15:49:18.883Z,22.00
2018-07-03T15:52:16.311Z,22.10
2018-07-03T15:55:14.125Z,22.20
2018-07-03T15:58:11.874Z,22.30
2018-07-03T16:01:09.731Z,22.20
2018-07-03T16:04:20.595Z,22.40
2018-07-03T16:07:35.835Z,22.40
2018-07-03T16:10:33.752Z,22.40
2018-07-03T16:13:31.418Z,22.40
2018-07-03T16:16:29.298Z,22.30
2018-07-03T16:19:32.941Z,22.20
2018-07-03T16:22:30.683Z,22.00
2018-07-03T16:25:29.361Z,21.90
2018-07-03T16:28:28.187Z,22.00
2018-07-03T16:31:26.104Z,22.00
2018-07-03T16:34:24.582Z,22.10
2018-07-03T16:37:22.523Z,22.10
2018-07-03T16:40:20.369Z,22.10
2018-07-03T16:43:18.223Z,22.10
2018-07-03T16:46:16.111Z,22.20
2018-07-03T16:49:14.275Z,22.10
2018-07-03T16:52:12.027Z,22.10
2018-07-03T16:55:10.019Z,22.20
2018-07-03T16:58:07.839Z,22.30
2018-07-03T17:01:05.838Z,22.30
2018-07-03T17:04:04.112Z,22.40
2018-07-03T17:07:01.503Z,22.40
2018-07-03T17:09:59.419Z,22.30
2018-07-03T17:12:56.998Z,22.30
2018-07-03T17:15:54.825Z,22.30
2018-07-03T17:18:58.485Z,22.20
2018-07-03T17:21:56.738Z,22.20
2018-07-03T17:24:55.060Z,22.30
2018-07-03T17:27:52.732Z,22.20
2018-07-03T17:30:50.485Z,22.30
2018-07-03T17:36:39.189Z,22.40
2018-07-03T17:39:41.205Z,22.40
2018-07-03T17:42:51.284Z,22.40
2018-07-03T17:46:00.743Z,22.60
2018-07-03T17:48:58.844Z,22.60
2018-07-03T17:51:56.698Z,22.60
2018-07-03T17:54:54.576Z,22.70
2018-07-03T17:57:52.449Z,22.70
2018-07-03T18:00:50.580Z,22.60
2018-07-03T18:03:48.456Z,22.60
2018-07-03T18:06:46.211Z,22.60
2018-07-03T18:09:44.096Z,22.50
2018-07-03T18:12:42.050Z,22.50
2018-07-03T18:15:39.875Z,22.50
2018-07-03T18:18:37.520Z,22.40
2018-07-03T18:21:35.535Z,22.30
2018-07-03T18:24:33.337Z,22.30
2018-07-03T18:27:31.074Z,22.40
2018-07-03T18:30:29.987Z,22.40
2018-07-03T18:33:27.789Z,22.30
2018-07-03T18:42:20.845Z,22.20
2018-07-03T18:45:18.663Z,22.20
2018-07-03T18:48:16.466Z,22.10
2018-07-03T18:51:14.434Z,22.00
2018-07-03T18:54:12.390Z,22.10
2018-07-03T18:57:10.174Z,22.10
2018-07-03T19:00:08.087Z,22.00
2018-07-03T19:03:05.973Z,22.00
2018-07-03T19:06:03.851Z,21.90
2018-07-03T19:09:01.600Z,21.80
2018-07-03T19:14:49.463Z,21.60
2018-07-03T19:17:47.514Z,21.50
2018-07-03T19:20:45.180Z,21.40
2018-07-03T19:23:43.263Z,21.40
2018-07-03T19:26:40.901Z,21.40
2018-07-03T19:29:38.606Z,21.20
2018-07-03T19:32:36.775Z,21.10
2018-07-03T19:35:34.436Z,21.00
2018-07-03T19:38:32.508Z,21.00
2018-07-03T19:41:30.429Z,21.00
2018-07-03T19:44:28.335Z,20.90
2018-07-03T19:47:26.293Z,20.80
2018-07-03T19:50:24.259Z,20.80
2018-07-03T19:53:22.280Z,20.70
2018-07-03T19:56:20.552Z,20.70
2018-07-03T19:59:18.322Z,20.60
2018-07-03T20:02:16.225Z,20.50
2018-07-03T20:05:14.029Z,20.50
2018-07-03T20:08:11.922Z,20.40
2018-07-03T20:11:09.799Z,20.40
2018-07-03T20:14:07.785Z,20.30
2018-07-03T20:17:05.469Z,20.20
2018-07-03T20:20:03.487Z,20.20
2018-07-03T20:23:01.319Z,20.10
2018-07-03T20:25:59.384Z,20.10
2018-07-03T20:28:57.311Z,20.00
2018-07-03T20:31:55.274Z,19.90
2018-07-03T20:34:52.912Z,19.90
2018-07-03T20:38:10.796Z,19.90
2018-07-03T20:41:14.664Z,19.80
2018-07-03T20:44:12.571Z,19.70
2018-07-03T20:47:10.508Z,19.50
2018-07-03T20:50:08.391Z,19.40
2018-07-03T20:53:06.267Z,19.40
2018-07-03T20:56:04.710Z,19.40
2018-07-03T20:59:02.218Z,19.40
2018-07-03T21:02:00.138Z,19.40
2018-07-03T21:04:58.130Z,19.40
2018-07-03T21:07:55.923Z,19.40
2018-07-03T21:10:54.939Z,19.40
2018-07-03T21:13:52.564Z,19.40
2018-07-03T21:16:50.529Z,19.30
2018-07-03T21:19:48.264Z,19.10
2018-07-03T21:22:45.540Z,19.00
2018-07-03T21:25:43.406Z,19.00
2018-07-03T21:28:41.290Z,18.90
2018-07-03T21:31:39.167Z,18.90
2018-07-03T21:34:36.985Z,18.90
2018-07-03T21:40:46.766Z,18.80
2018-07-03T21:43:44.779Z,18.70
2018-07-03T21:46:42.769Z,18.70
2018-07-03T21:49:40.555Z,18.70
2018-07-03T21:52:38.447Z,18.70
2018-07-03T21:55:36.018Z,18.60
2018-07-03T21:58:33.823Z,18.50
2018-07-03T22:01:31.660Z,18.50
2018-07-03T22:04:29.528Z,18.50
2018-07-03T22:07:27.446Z,18.50
2018-07-03T22:10:25.077Z,18.50
2018-07-03T22:13:22.958Z,18.50
2018-07-03T22:16:20.661Z,18.40
2018-07-03T22:19:18.541Z,18.40
2018-07-03T22:22:16.586Z,18.40
2018-07-03T22:25:14.476Z,18.20
2018-07-03T22:28:12.516Z,18.10
2018-07-03T22:31:10.119Z,18.00
2018-07-03T22:34:08.020Z,17.90
2018-07-03T22:37:05.756Z,17.90
2018-07-03T22:40:03.643Z,17.80
2018-07-03T22:43:01.491Z,17.80
2018-07-03T22:45:59.368Z,17.80
2018-07-03T22:48:57.014Z,17.70
2018-07-03T22:51:54.838Z,17.80
2018-07-03T22:54:52.747Z,17.90
2018-07-03T22:57:49.983Z,17.90
2018-07-03T23:00:47.948Z,17.80
2018-07-03T23:03:45.593Z,17.80
2018-07-03T23:06:43.764Z,17.80
2018-07-03T23:09:41.723Z,17.80
2018-07-03T23:12:39.611Z,17.80
2018-07-03T23:15:37.410Z,18.00
2018-07-03T23:18:35.206Z,17.90
2018-07-03T23:21:32.957Z,17.80
2018-07-03T23:24:30.676Z,17.80
2018-07-03T23:27:28.497Z,17.60
2018-07-03T23:30:26.314Z,17.60
2018-07-03T23:33:24.096Z,17.60
2018-07-03T23:36:21.880Z,17.60
2018-07-03T23:39:21.508Z,17.60
2018-07-03T23:42:19.402Z,17.50
2018-07-03T23:45:17.401Z,17.40
2018-07-03T23:48:27.474Z,17.40
2018-07-03T23:51:36.858Z,17.40
2018-07-03T23:54:46.311Z,17.30
2018-07-03T23:57:55.903Z,17.30
